createdAt,value
2017-10-26T00:01:21.806Z,99.90
2017-10-26T00:03:50.767Z,99.90
2017-10-26T00:06:19.732Z,99.90
2017-10-26T00:08:47.839Z,99.90
2017-10-26T00:11:16.858Z,99.90
2017-10-26T00:13:44.971Z,99.90
2017-10-26T00:16:14.609Z,99.90
2017-10-26T00:18:43.492Z,99.90
2017-10-26T00:21:12.403Z,99.90
2017-10-26T00:23:40.630Z,99.90
2017-10-26T00:26:08.730Z,99.90
2017-10-26T00:28:37.623Z,99.90
2017-10-26T00:31:06.514Z,99.90
2017-10-26T00:33:34.638Z,99.90
2017-10-26T00:36:02.858Z,99.90
2017-10-26T00:38:31.751Z,99.90
2017-10-26T00:41:00.644Z,99.90
2017-10-26T00:43:28.794Z,99.90
2017-10-26T00:45:56.924Z,99.90
2017-10-26T00:48:25.080Z,99.90
2017-10-26T00:50:53.199Z,99.90
2017-10-26T00:53:21.495Z,99.90
2017-10-26T00:55:49.674Z,99.90
2017-10-26T00:58:17.817Z,99.90
2017-10-26T01:00:45.918Z,99.90
2017-10-26T01:03:14.086Z,99.90
2017-10-26T01:05:43.075Z,99.90
2017-10-26T01:08:12.000Z,99.90
2017-10-26T01:10:40.153Z,99.90
2017-10-26T01:13:09.174Z,99.90
2017-10-26T01:15:37.288Z,99.90
2017-10-26T01:18:05.412Z,99.90
2017-10-26T01:20:33.537Z,99.90
2017-10-26T01:23:02.450Z,99.90
2017-10-26T01:25:31.451Z,99.90
2017-10-26T01:27:59.578Z,99.90
2017-10-26T01:30:27.710Z,99.90
2017-10-26T01:32:55.838Z,99.90
2017-10-26T01:35:23.969Z,99.90
2017-10-26T01:37:52.102Z,99.90
2017-10-26T01:40:20.236Z,99.90
2017-10-26T01:42:48.382Z,99.90
2017-10-26T01:45:16.492Z,99.90
2017-10-26T01:47:44.655Z,99.90
2017-10-26T01:50:12.802Z,99.90
2017-10-26T01:52:40.936Z,99.90
2017-10-26T01:55:10.076Z,99.90
2017-10-26T01:57:38.280Z,99.90
2017-10-26T02:00:06.430Z,99.90
2017-10-26T02:02:34.560Z,99.90
2017-10-26T02:05:02.739Z,99.90
2017-10-26T02:07:30.902Z,99.90
2017-10-26T02:09:59.810Z,99.90
2017-10-26T02:12:28.784Z,99.90
2017-10-26T02:14:57.662Z,99.90
2017-10-26T02:17:26.557Z,99.90
2017-10-26T02:19:54.710Z,99.90
2017-10-26T02:22:22.850Z,99.90
2017-10-26T02:24:50.984Z,99.90
2017-10-26T02:27:19.140Z,99.90
2017-10-26T02:30:00.030Z,99.90
2017-10-26T02:32:28.169Z,99.90
2017-10-26T02:34:56.332Z,99.90
2017-10-26T02:37:24.464Z,99.90
2017-10-26T02:39:52.609Z,99.90
2017-10-26T02:42:21.508Z,99.90
2017-10-26T02:44:49.652Z,99.90
2017-10-26T02:47:18.547Z,99.90
2017-10-26T02:49:47.439Z,99.90
2017-10-26T02:52:16.338Z,99.90
2017-10-26T02:54:45.261Z,99.90
2017-10-26T02:57:13.403Z,99.90
2017-10-26T02:59:42.315Z,99.90
2017-10-26T03:02:10.443Z,99.90
2017-10-26T03:04:38.588Z,99.90
2017-10-26T03:07:06.748Z,99.90
2017-10-26T03:09:34.962Z,99.90
2017-10-26T03:12:03.114Z,99.90
2017-10-26T03:14:31.249Z,99.90
2017-10-26T03:16:59.411Z,99.90
2017-10-26T03:19:27.554Z,99.90
2017-10-26T03:21:55.685Z,99.90
2017-10-26T03:24:23.821Z,99.90
2017-10-26T03:26:52.708Z,99.90
2017-10-26T03:29:20.859Z,99.90
2017-10-26T03:31:48.995Z,99.90
2017-10-26T03:34:17.134Z,99.90
2017-10-26T03:36:45.274Z,99.90
2017-10-26T03:39:13.789Z,99.90
2017-10-26T03:41:42.669Z,99.90
2017-10-26T03:44:11.568Z,99.90
2017-10-26T03:46:40.490Z,99.90
2017-10-26T03:49:08.629Z,99.90
2017-10-26T03:51:36.779Z,99.90
2017-10-26T03:54:05.675Z,99.90
2017-10-26T03:56:34.579Z,99.90
2017-10-26T03:59:02.756Z,99.90
2017-10-26T04:01:31.649Z,99.90
2017-10-26T04:03:59.767Z,99.90
2017-10-26T04:06:27.894Z,99.90
2017-10-26T04:08:56.043Z,99.90
2017-10-26T04:11:25.250Z,99.90
2017-10-26T04:13:54.150Z,99.90
2017-10-26T04:16:23.056Z,99.90
2017-10-26T04:18:51.198Z,99.90
2017-10-26T04:21:20.092Z,99.90
2017-10-26T04:23:48.991Z,99.90
2017-10-26T04:26:17.143Z,99.90
2017-10-26T04:28:46.089Z,99.90
2017-10-26T04:31:14.218Z,99.90
2017-10-26T04:33:42.373Z,99.90
2017-10-26T04:36:11.389Z,99.90
2017-10-26T04:38:40.275Z,99.90
2017-10-26T04:41:08.416Z,99.90
2017-10-26T04:43:36.649Z,99.90
2017-10-26T04:46:04.795Z,99.90
2017-10-26T04:48:33.005Z,99.90
2017-10-26T04:51:01.140Z,99.90
2017-10-26T04:53:30.086Z,99.90
2017-10-26T04:55:58.230Z,99.90
2017-10-26T04:58:26.405Z,99.90
2017-10-26T05:00:55.576Z,99.90
2017-10-26T05:03:24.483Z,99.90
2017-10-26T05:05:52.615Z,99.90
2017-10-26T05:08:20.802Z,99.90
2017-10-26T05:10:49.767Z,99.90
2017-10-26T05:13:17.894Z,99.90
2017-10-26T05:15:46.027Z,99.90
2017-10-26T05:18:14.167Z,99.90
2017-10-26T05:20:42.370Z,99.90
2017-10-26T05:23:10.525Z,99.90
2017-10-26T05:25:38.665Z,99.90
2017-10-26T05:28:06.792Z,99.90
2017-10-26T05:30:34.954Z,99.90
2017-10-26T05:33:03.189Z,99.90
2017-10-26T05:35:31.350Z,99.90
2017-10-26T05:38:00.269Z,99.90
2017-10-26T05:40:28.401Z,99.90
2017-10-26T05:42:57.371Z,99.90
2017-10-26T05:45:25.545Z,99.90
2017-10-26T05:47:53.697Z,99.90
2017-10-26T05:50:21.830Z,99.90
2017-10-26T05:52:49.963Z,99.90
2017-10-26T05:55:18.861Z,99.90
2017-10-26T05:57:46.995Z,99.90
2017-10-26T06:00:15.122Z,99.90
2017-10-26T06:02:43.247Z,99.90
2017-10-26T06:05:11.368Z,99.90
2017-10-26T06:07:39.562Z,99.90
2017-10-26T06:10:07.675Z,99.90
2017-10-26T06:12:35.868Z,99.90
2017-10-26T06:15:04.764Z,99.90
2017-10-26T06:17:33.750Z,99.90
2017-10-26T06:20:02.774Z,99.90
2017-10-26T06:22:30.885Z,99.90
2017-10-26T06:24:59.119Z,99.90
2017-10-26T06:27:27.997Z,99.90
2017-10-26T06:29:56.138Z,99.90
2017-10-26T06:32:24.309Z,99.90
2017-10-26T06:34:53.972Z,99.90
2017-10-26T06:37:22.144Z,99.90
2017-10-26T06:39:50.288Z,99.90
2017-10-26T06:42:18.434Z,99.90
2017-10-26T06:44:46.603Z,99.90
2017-10-26T06:47:14.744Z,99.90
2017-10-26T06:49:42.859Z,99.90
2017-10-26T06:52:11.788Z,99.90
2017-10-26T06:54:39.929Z,99.90
2017-10-26T06:57:08.819Z,99.90
2017-10-26T06:59:37.710Z,99.90
2017-10-26T07:02:06.616Z,99.90
2017-10-26T07:04:34.788Z,99.90
2017-10-26T07:07:03.222Z,99.90
2017-10-26T07:09:31.341Z,99.90
2017-10-26T07:11:59.519Z,99.90
2017-10-26T07:14:28.408Z,99.90
2017-10-26T07:16:56.535Z,99.90
2017-10-26T07:19:24.662Z,99.90
2017-10-26T07:21:52.784Z,99.90
2017-10-26T07:24:20.913Z,99.90
2017-10-26T07:26:49.025Z,99.90
2017-10-26T07:29:17.148Z,99.90
2017-10-26T07:31:45.273Z,99.90
2017-10-26T07:34:13.476Z,99.90
2017-10-26T07:36:41.631Z,99.90
2017-10-26T07:39:10.523Z,99.90
2017-10-26T07:41:39.432Z,99.90
2017-10-26T07:44:07.561Z,99.90
2017-10-26T07:46:35.701Z,99.90
2017-10-26T07:49:03.833Z,99.90
2017-10-26T07:51:32.707Z,99.90
2017-10-26T07:54:00.850Z,99.90
2017-10-26T07:56:29.002Z,99.90
2017-10-26T07:58:57.128Z,99.90
2017-10-26T08:01:25.267Z,99.90
2017-10-26T08:03:53.388Z,99.90
2017-10-26T08:06:22.711Z,99.90
2017-10-26T08:08:50.860Z,99.90
2017-10-26T08:11:19.742Z,99.90
2017-10-26T08:13:47.874Z,99.90
2017-10-26T08:16:15.987Z,99.90
2017-10-26T08:18:44.897Z,99.90
2017-10-26T08:21:13.790Z,99.90
2017-10-26T08:23:41.918Z,99.90
2017-10-26T08:26:10.045Z,99.90
2017-10-26T08:28:39.171Z,99.90
2017-10-26T08:31:07.301Z,99.90
2017-10-26T08:33:35.413Z,99.90
2017-10-26T08:36:04.319Z,99.90
2017-10-26T08:38:32.414Z,99.90
2017-10-26T08:41:01.303Z,99.90
2017-10-26T08:43:29.463Z,99.90
2017-10-26T08:45:58.364Z,99.90
2017-10-26T08:48:27.251Z,99.90
2017-10-26T08:50:55.716Z,99.90
2017-10-26T08:53:24.615Z,99.90
2017-10-26T08:55:53.509Z,99.90
2017-10-26T08:58:22.432Z,99.90
2017-10-26T09:00:50.548Z,99.90
2017-10-26T09:03:18.683Z,99.90
2017-10-26T09:05:46.804Z,99.90
2017-10-26T09:08:15.701Z,99.90
2017-10-26T09:10:44.595Z,99.50
2017-10-26T09:13:13.547Z,98.80
2017-10-26T09:15:42.694Z,98.90
2017-10-26T09:18:11.582Z,98.70
2017-10-26T09:20:39.739Z,98.70
2017-10-26T09:23:07.857Z,98.70
2017-10-26T09:25:35.984Z,98.60
2017-10-26T09:28:04.871Z,98.40
2017-10-26T09:30:33.771Z,97.50
2017-10-26T09:33:08.206Z,97.50
2017-10-26T09:35:36.355Z,97.50
2017-10-26T09:38:04.460Z,95.40
2017-10-26T09:40:32.599Z,93.80
2017-10-26T09:43:01.514Z,92.30
2017-10-26T09:45:30.391Z,91.20
2017-10-26T09:47:59.309Z,91.10
2017-10-26T09:50:27.431Z,91.10
2017-10-26T09:52:55.567Z,90.70
2017-10-26T09:55:23.711Z,90.40
2017-10-26T09:57:51.854Z,90.00
2017-10-26T10:00:20.787Z,89.80
2017-10-26T10:02:48.896Z,89.70
2017-10-26T10:05:17.032Z,89.50
2017-10-26T10:07:45.164Z,90.00
2017-10-26T10:10:14.095Z,89.00
2017-10-26T10:12:42.215Z,88.90
2017-10-26T10:15:10.345Z,87.30
2017-10-26T10:17:38.480Z,87.80
2017-10-26T10:20:06.586Z,87.50
2017-10-26T10:22:34.738Z,87.70
2017-10-26T10:25:02.869Z,89.10
2017-10-26T10:27:30.998Z,87.80
2017-10-26T10:29:59.168Z,87.00
2017-10-26T10:32:27.295Z,84.30
2017-10-26T10:34:55.454Z,83.70
2017-10-26T10:37:23.577Z,84.30
2017-10-26T10:39:51.739Z,83.20
2017-10-26T10:42:19.876Z,82.70
2017-10-26T10:44:47.996Z,79.80
2017-10-26T10:47:16.150Z,78.30
2017-10-26T10:49:45.026Z,75.20
2017-10-26T10:52:13.154Z,75.00
2017-10-26T10:54:41.260Z,73.50
2017-10-26T10:57:10.190Z,70.90
2017-10-26T10:59:44.079Z,70.70
2017-10-26T11:02:12.987Z,66.20
2017-10-26T11:04:41.120Z,66.20
2017-10-26T11:07:09.224Z,62.90
2017-10-26T11:09:37.377Z,58.00
2017-10-26T11:12:06.289Z,55.50
2017-10-26T11:14:35.232Z,55.40
2017-10-26T11:17:03.397Z,55.40
2017-10-26T11:19:31.539Z,54.60
2017-10-26T11:21:59.710Z,52.90
2017-10-26T11:24:27.815Z,51.80
2017-10-26T11:26:55.978Z,52.50
2017-10-26T11:29:24.375Z,51.40
2017-10-26T11:31:52.505Z,50.40
2017-10-26T11:34:20.651Z,49.90
2017-10-26T11:36:49.543Z,50.70
2017-10-26T11:39:17.677Z,50.60
2017-10-26T11:41:45.793Z,49.60
2017-10-26T11:44:13.915Z,49.20
2017-10-26T11:46:43.555Z,49.10
2017-10-26T11:49:11.661Z,49.00
2017-10-26T11:51:39.788Z,48.60
2017-10-26T11:54:07.901Z,47.90
2017-10-26T11:56:36.020Z,46.30
2017-10-26T11:59:04.249Z,45.70
2017-10-26T12:01:33.186Z,46.30
2017-10-26T12:04:01.301Z,46.20
2017-10-26T12:06:29.433Z,47.00
2017-10-26T12:08:57.550Z,46.80
2017-10-26T12:11:25.668Z,46.00
2017-10-26T12:13:53.801Z,45.20
2017-10-26T12:16:21.921Z,45.40
2017-10-26T12:18:50.063Z,45.20
2017-10-26T12:21:18.179Z,45.10
2017-10-26T12:23:47.089Z,48.10
2017-10-26T12:26:15.978Z,47.90
2017-10-26T12:28:44.115Z,47.80
2017-10-26T12:31:12.261Z,49.00
2017-10-26T12:33:40.390Z,50.30
2017-10-26T12:36:08.594Z,51.50
2017-10-26T12:38:36.763Z,52.00
2017-10-26T12:41:04.917Z,52.10
2017-10-26T12:43:33.810Z,51.70
2017-10-26T12:46:01.935Z,51.70
2017-10-26T12:48:30.055Z,51.50
2017-10-26T12:50:58.174Z,52.90
2017-10-26T12:53:26.337Z,52.50
2017-10-26T12:55:54.497Z,52.70
2017-10-26T12:58:22.611Z,52.50
2017-10-26T13:00:51.539Z,51.20
2017-10-26T13:03:19.652Z,51.20
2017-10-26T13:05:47.765Z,51.00
2017-10-26T13:08:15.893Z,50.30
2017-10-26T13:10:44.307Z,50.30
2017-10-26T13:13:13.197Z,50.30
2017-10-26T13:15:42.118Z,49.30
2017-10-26T13:18:11.113Z,49.30
2017-10-26T13:20:39.239Z,50.30
2017-10-26T13:23:08.134Z,50.70
2017-10-26T13:25:37.020Z,50.90
2017-10-26T13:28:05.904Z,49.90
2017-10-26T13:30:34.802Z,49.40
2017-10-26T13:33:03.715Z,48.80
2017-10-26T13:35:32.595Z,48.40
2017-10-26T13:38:01.502Z,48.60
2017-10-26T13:40:29.621Z,48.60
2017-10-26T13:42:57.820Z,48.80
2017-10-26T13:45:25.950Z,49.90
2017-10-26T13:47:54.077Z,51.10
2017-10-26T13:50:22.976Z,53.90
2017-10-26T13:52:51.118Z,53.90
2017-10-26T13:55:19.224Z,55.30
2017-10-26T13:57:47.960Z,57.10
2017-10-26T14:00:16.090Z,57.10
2017-10-26T14:02:44.205Z,57.90
2017-10-26T14:05:12.328Z,58.20
2017-10-26T14:07:40.487Z,59.30
2017-10-26T14:10:09.371Z,61.00
2017-10-26T14:12:38.261Z,60.70
2017-10-26T14:15:07.174Z,61.20
2017-10-26T14:17:35.354Z,61.20
2017-10-26T14:20:03.476Z,62.00
2017-10-26T14:22:31.605Z,62.50
2017-10-26T14:24:59.767Z,62.90
2017-10-26T14:27:27.897Z,62.90
2017-10-26T14:29:56.011Z,63.00
2017-10-26T14:32:24.130Z,63.70
2017-10-26T14:34:52.246Z,64.00
2017-10-26T14:37:20.365Z,63.70
2017-10-26T14:39:48.537Z,63.60
2017-10-26T14:42:16.658Z,63.40
2017-10-26T14:44:45.509Z,64.50
2017-10-26T14:47:13.644Z,64.50
2017-10-26T14:49:41.763Z,65.30
2017-10-26T14:52:10.676Z,65.40
2017-10-26T14:54:38.833Z,65.30
2017-10-26T14:57:08.901Z,65.80
2017-10-26T14:59:37.796Z,66.10
2017-10-26T15:02:05.933Z,66.10
2017-10-26T15:04:34.102Z,66.80
2017-10-26T15:07:02.975Z,66.40
2017-10-26T15:09:31.896Z,67.10
2017-10-26T15:12:00.005Z,67.00
2017-10-26T15:14:28.171Z,67.20
2017-10-26T15:16:56.291Z,67.80
2017-10-26T15:19:24.434Z,68.30
2017-10-26T15:21:52.562Z,69.00
2017-10-26T15:24:20.729Z,69.20
2017-10-26T15:26:48.833Z,69.40
2017-10-26T15:29:16.976Z,69.30
2017-10-26T15:31:45.102Z,69.80
2017-10-26T15:34:13.286Z,70.10
2017-10-26T15:36:42.211Z,72.60
2017-10-26T15:39:10.336Z,72.60
2017-10-26T15:41:38.555Z,72.90
2017-10-26T15:44:06.647Z,73.80
2017-10-26T15:46:34.788Z,74.40
2017-10-26T15:49:02.947Z,74.20
2017-10-26T15:51:31.850Z,76.00
2017-10-26T15:54:00.715Z,76.40
2017-10-26T15:56:29.603Z,77.50
2017-10-26T15:58:57.718Z,77.40
2017-10-26T16:01:25.845Z,78.90
2017-10-26T16:03:54.885Z,80.30
2017-10-26T16:06:23.028Z,80.10
2017-10-26T16:08:51.902Z,82.50
2017-10-26T16:11:20.784Z,83.60
2017-10-26T16:13:49.710Z,84.00
2017-10-26T16:16:17.882Z,84.00
2017-10-26T16:18:46.044Z,84.70
2017-10-26T16:21:14.228Z,85.40
2017-10-26T16:23:42.364Z,86.10
2017-10-26T16:26:10.476Z,87.50
2017-10-26T16:28:38.668Z,88.50
2017-10-26T16:31:06.932Z,89.90
2017-10-26T16:33:35.823Z,91.40
2017-10-26T16:36:03.955Z,91.40
2017-10-26T16:38:32.868Z,92.30
2017-10-26T16:41:01.025Z,92.30
2017-10-26T16:43:29.930Z,93.00
2017-10-26T16:45:58.079Z,93.00
2017-10-26T16:48:27.094Z,93.80
2017-10-26T16:50:55.279Z,93.70
2017-10-26T16:53:23.399Z,94.40
2017-10-26T16:55:51.537Z,94.50
2017-10-26T16:58:19.700Z,94.90
2017-10-26T17:00:47.829Z,95.00
2017-10-26T17:03:16.752Z,95.80
2017-10-26T17:05:44.893Z,95.80
2017-10-26T17:08:13.860Z,96.80
2017-10-26T17:10:42.781Z,97.00
2017-10-26T17:13:10.915Z,97.00
2017-10-26T17:15:39.084Z,97.40
2017-10-26T17:18:07.206Z,97.70
2017-10-26T17:20:36.137Z,98.10
2017-10-26T17:23:04.296Z,98.10
2017-10-26T17:25:32.413Z,98.20
2017-10-26T17:28:00.541Z,98.10
2017-10-26T17:30:28.700Z,98.20
2017-10-26T17:32:56.829Z,98.30
2017-10-26T17:35:24.993Z,98.40
2017-10-26T17:37:53.102Z,98.60
2017-10-26T17:40:21.256Z,98.70
2017-10-26T17:42:50.169Z,98.70
2017-10-26T17:45:18.333Z,98.70
2017-10-26T17:47:47.248Z,99.10
2017-10-26T17:50:15.385Z,99.00
2017-10-26T17:52:43.572Z,99.20
2017-10-26T17:55:12.490Z,99.20
2017-10-26T17:57:40.710Z,99.10
2017-10-26T18:00:08.871Z,99.20
2017-10-26T18:02:37.016Z,99.30
2017-10-26T18:05:05.168Z,99.40
2017-10-26T18:07:33.308Z,99.70
2017-10-26T18:10:02.238Z,99.90
2017-10-26T18:12:30.371Z,99.80
2017-10-26T18:14:59.326Z,99.90
2017-10-26T18:17:27.477Z,99.90
2017-10-26T18:19:55.615Z,99.80
2017-10-26T18:22:24.538Z,99.90
2017-10-26T18:24:52.701Z,99.90
2017-10-26T18:27:21.619Z,99.90
2017-10-26T18:29:49.797Z,99.90
2017-10-26T18:32:17.950Z,99.90
2017-10-26T18:34:46.067Z,99.90
2017-10-26T18:37:14.252Z,99.90
2017-10-26T18:39:43.152Z,99.90
2017-10-26T18:42:12.068Z,99.90
2017-10-26T18:44:40.267Z,99.90
2017-10-26T18:47:08.404Z,99.90
2017-10-26T18:49:36.621Z,99.90
2017-10-26T18:52:04.778Z,99.90
2017-10-26T18:54:32.955Z,99.90
2017-10-26T18:57:01.096Z,99.90
2017-10-26T18:59:29.236Z,99.90
2017-10-26T19:01:57.385Z,99.90
2017-10-26T19:04:25.533Z,99.90
2017-10-26T19:06:53.683Z,99.90
2017-10-26T19:09:22.587Z,99.90
2017-10-26T19:11:50.755Z,99.90
2017-10-26T19:14:18.975Z,99.90
2017-10-26T19:16:47.525Z,99.90
2017-10-26T19:19:15.877Z,99.90
2017-10-26T19:21:44.028Z,99.90
2017-10-26T19:24:12.978Z,99.90
2017-10-26T19:26:41.129Z,99.90
2017-10-26T19:29:09.299Z,99.90
2017-10-26T19:31:38.487Z,99.90
2017-10-26T19:34:06.671Z,99.90
2017-10-26T19:36:34.811Z,99.90
2017-10-26T19:39:02.952Z,99.90
2017-10-26T19:41:31.738Z,99.90
2017-10-26T19:44:04.714Z,99.90
2017-10-26T19:46:32.872Z,99.90
2017-10-26T19:49:01.006Z,99.90
2017-10-26T19:51:29.921Z,99.90
2017-10-26T19:53:58.110Z,99.90
2017-10-26T19:56:26.255Z,99.90
2017-10-26T19:58:55.190Z,99.90
2017-10-26T20:01:23.321Z,99.90
2017-10-26T20:03:51.483Z,99.90
2017-10-26T20:06:20.415Z,99.90
2017-10-26T20:08:48.545Z,99.90
2017-10-26T20:11:17.460Z,99.90
2017-10-26T20:13:45.611Z,99.90
2017-10-26T20:16:14.520Z,99.90
2017-10-26T20:18:42.687Z,99.90
2017-10-26T20:21:10.835Z,99.90
2017-10-26T20:23:39.780Z,99.90
2017-10-26T20:26:07.940Z,99.90
2017-10-26T20:28:36.053Z,99.90
2017-10-26T20:31:04.195Z,99.90
2017-10-26T20:33:32.370Z,99.90
2017-10-26T20:36:00.561Z,99.90
2017-10-26T20:38:28.711Z,99.90
2017-10-26T20:40:57.325Z,99.90
2017-10-26T20:43:26.571Z,99.90
2017-10-26T20:45:55.784Z,99.90
2017-10-26T20:48:26.789Z,99.90
2017-10-26T20:51:00.719Z,99.90
2017-10-26T20:53:34.394Z,99.90
2017-10-26T20:56:08.243Z,99.90
2017-10-26T20:58:42.107Z,99.90
2017-10-26T21:01:16.725Z,99.90
2017-10-26T21:03:50.629Z,99.90
2017-10-26T21:06:19.512Z,99.90
2017-10-26T21:08:53.341Z,99.90
2017-10-26T21:11:27.999Z,99.90
2017-10-26T21:14:01.624Z,99.90
2017-10-26T21:16:29.776Z,99.90
2017-10-26T21:18:57.925Z,99.90
2017-10-26T21:21:26.088Z,99.90
2017-10-26T21:23:54.976Z,99.90
2017-10-26T21:26:23.915Z,99.90
2017-10-26T21:28:52.066Z,99.90
2017-10-26T21:31:20.971Z,99.90
2017-10-26T21:33:52.797Z,99.90
2017-10-26T21:36:22.412Z,99.90
2017-10-26T21:38:50.522Z,99.90
2017-10-26T21:41:18.691Z,99.90
2017-10-26T21:43:46.825Z,99.90
2017-10-26T21:46:15.013Z,99.90
2017-10-26T21:48:43.239Z,99.90
2017-10-26T21:51:11.435Z,99.90
2017-10-26T21:53:40.332Z,99.90
2017-10-26T21:56:08.690Z,99.90
2017-10-26T21:58:37.628Z,99.90
2017-10-26T22:01:05.779Z,99.90
2017-10-26T22:03:33.936Z,99.90
2017-10-26T22:06:02.808Z,99.90
2017-10-26T22:08:31.700Z,99.90
2017-10-26T22:10:59.902Z,99.90
2017-10-26T22:13:28.172Z,99.90
2017-10-26T22:15:56.326Z,99.90
2017-10-26T22:18:24.444Z,99.90
2017-10-26T22:20:52.567Z,99.90
2017-10-26T22:23:21.470Z,99.90
2017-10-26T22:25:50.363Z,99.90
2017-10-26T22:28:19.360Z,99.90
2017-10-26T22:30:47.484Z,99.90
2017-10-26T22:33:15.700Z,99.90
2017-10-26T22:35:44.581Z,99.90
2017-10-26T22:38:13.487Z,99.90
2017-10-26T22:40:41.658Z,99.90
2017-10-26T22:43:10.565Z,99.90
2017-10-26T22:45:38.882Z,99.90
2017-10-26T22:48:07.007Z,99.90
2017-10-26T22:50:35.142Z,99.90
2017-10-26T22:53:03.311Z,99.90
2017-10-26T22:55:31.431Z,99.90
2017-10-26T22:57:59.552Z,99.90
2017-10-26T23:00:27.671Z,99.90
2017-10-26T23:02:55.799Z,99.90
2017-10-26T23:05:24.050Z,99.90
2017-10-26T23:07:52.172Z,99.90
2017-10-26T23:10:20.321Z,99.90
2017-10-26T23:12:48.444Z,99.90
2017-10-26T23:15:16.568Z,99.90
2017-10-26T23:17:44.684Z,99.90
2017-10-26T23:20:12.858Z,99.90
2017-10-26T23:22:41.355Z,99.90
2017-10-26T23:25:10.388Z,99.90
2017-10-26T23:27:38.511Z,99.90
2017-10-26T23:30:06.624Z,99.90
2017-10-26T23:32:34.763Z,99.90
2017-10-26T23:35:02.905Z,99.90
2017-10-26T23:37:31.043Z,99.90
2017-10-26T23:39:59.267Z,99.90
2017-10-26T23:42:28.147Z,99.90
2017-10-26T23:44:56.282Z,99.90
2017-10-26T23:47:25.197Z,99.90
2017-10-26T23:49:54.114Z,99.90
2017-10-26T23:52:22.235Z,99.90
2017-10-26T23:54:51.136Z,99.90
2017-10-26T23:57:19.288Z,99.90
2017-10-26T23:59:47.424Z,99.90
